Time;durP1;ratioP1;P1;durP2;ratioP2;P2;SDS_P1;SDS_P2;PMS_P1;PMS_P2;Temp;Humidity;BMP_temperature;BMP_pressure;BME280_temperature;BME280_humidity;BME280_pressure;Samples;Min_cycle;Max_cycle;Signal;HPM_P1;HPM_P2
2022/10/30 00:00:08;;;;;;;31.33;17.80;;;;;;;16.89;65.99;100661.00;4923956;28;97014;-81
2022/10/30 00:02:37;;;;;;;35.63;18.63;;;;;;;16.83;65.87;100648.94;4956103;28;97969;-81
2022/10/30 00:05:03;;;;;;;30.13;18.60;;;;;;;16.81;66.18;100645.50;4942810;28;101291;-82
2022/10/30 00:07:28;;;;;;;34.10;19.23;;;;;;;16.90;66.02;100671.53;4948758;28;97076;-82
2022/10/30 00:09:54;;;;;;;30.88;17.77;;;;;;;16.80;66.22;100650.91;4940175;28;96988;-81
2022/10/30 00:12:19;;;;;;;30.73;18.38;;;;;;;16.91;65.98;100669.72;4948076;28;97535;-81
2022/10/30 00:14:45;;;;;;;32.47;18.65;;;;;;;16.82;65.95;100668.44;4947219;28;101112;-82
2022/10/30 00:17:10;;;;;;;33.42;18.25;;;;;;;16.82;65.94;100671.09;4942367;28;96910;-81
2022/10/30 00:19:36;;;;;;;28.83;18.23;;;;;;;16.83;66.15;100661.34;4940150;28;96916;-81
2022/10/30 00:22:01;;;;;;;32.53;18.88;;;;;;;16.78;66.02;100668.69;4938305;28;101552;-87
2022/10/30 00:24:28;;;;;;;32.35;18.17;;;;;;;16.73;65.96;100669.75;4956229;28;101554;-81
2022/10/30 00:26:53;;;;;;;29.98;18.00;;;;;;;16.72;66.02;100665.38;4955625;28;96918;-83
2022/10/30 00:29:19;;;;;;;31.17;17.67;;;;;;;16.72;65.72;100659.22;4955869;28;96939;-82
2022/10/30 00:31:45;;;;;;;28.15;17.80;;;;;;;16.70;65.78;100664.63;4939252;28;98045;-82
2022/10/30 00:34:11;;;;;;;32.65;18.38;;;;;;;16.65;65.98;100648.09;4922957;28;102084;-81
2022/10/30 00:36:36;;;;;;;28.73;17.88;;;;;;;16.65;65.68;100647.25;4923432;28;97163;-81
2022/10/30 00:39:02;;;;;;;32.33;19.38;;;;;;;16.53;65.96;100638.19;4956198;28;97060;-86
2022/10/30 00:41:28;;;;;;;34.90;19.30;;;;;;;16.63;65.82;100649.13;4949987;28;99125;-81
2022/10/30 00:43:54;;;;;;;36.92;19.70;;;;;;;16.66;65.71;100651.59;4952051;28;99045;-81
2022/10/30 00:46:29;;;;;;;31.65;19.70;;;;;;;16.53;65.75;100638.19;4939112;28;97130;-81
2022/10/30 00:49:02;;;;;;;32.25;18.98;;;;;;;16.53;65.73;100632.88;4954421;28;96880;-81
2022/10/30 00:51:29;;;;;;;34.63;20.52;;;;;;;16.63;66.10;100657.94;4944408;28;101627;-81
2022/10/30 00:53:58;;;;;;;34.88;20.98;;;;;;;16.60;66.38;100655.44;4922902;28;100906;-81
2022/10/30 00:56:24;;;;;;;34.40;19.65;;;;;;;16.51;66.28;100651.50;4954851;28;96863;-82
2022/10/30 00:58:54;;;;;;;34.85;21.90;;;;;;;16.53;66.00;100641.69;4940126;28;98014;-81
2022/10/30 01:01:23;;;;;;;38.15;21.08;;;;;;;16.51;66.19;100643.53;4938099;28;103471;-81
2022/10/30 01:03:52;;;;;;;32.22;19.50;;;;;;;16.56;66.17;100645.97;4955221;28;98397;-81
2022/10/30 01:06:18;;;;;;;39.58;20.38;;;;;;;16.52;66.12;100647.03;4922694;28;97008;-82
2022/10/30 01:08:44;;;;;;;36.15;19.25;;;;;;;16.41;65.93;100629.09;4952526;28;97225;-82
2022/10/30 01:11:10;;;;;;;36.40;21.65;;;;;;;16.49;65.93;100639.25;4948151;28;97662;-81
2022/10/30 01:13:37;;;;;;;35.90;19.65;;;;;;;16.39;66.27;100622.16;4956212;28;101068;-81
2022/10/30 01:16:40;;;;;;;34.67;19.90;;;;;;;16.44;66.25;100626.28;4941175;28;96781;-81
2022/10/30 01:19:18;;;;;;;36.03;21.58;;;;;;;16.40;65.85;100615.91;4947631;28;96976;-82
2022/10/30 01:22:05;;;;;;;38.05;20.13;;;;;;;16.41;66.16;100621.16;4941458;28;101853;-81
2022/10/30 01:24:48;;;;;;;38.20;22.05;;;;;;;16.39;65.75;100619.50;4958308;28;101575;-81
2022/10/30 01:27:22;;;;;;;36.17;21.20;;;;;;;16.35;65.98;100631.19;4958473;28;96930;-81
2022/10/30 01:30:31;;;;;;;35.95;20.08;;;;;;;16.33;65.76;100633.94;4964618;28;96936;-81
2022/10/30 01:33:15;;;;;;;39.88;23.00;;;;;;;16.32;65.93;100647.25;4939843;28;100596;-81
2022/10/30 01:36:00;;;;;;;38.42;22.27;;;;;;;16.27;66.00;100629.81;4974982;28;97828;-82
2022/10/30 01:38:31;;;;;;;36.97;22.50;;;;;;;16.30;65.96;100634.94;4938464;28;96950;-82
2022/10/30 01:40:56;;;;;;;38.42;22.75;;;;;;;16.25;66.05;100634.34;4955070;28;97410;-81
2022/10/30 01:43:23;;;;;;;36.17;22.55;;;;;;;16.26;66.22;100635.19;4954961;28;98321;-81
2022/10/30 01:46:00;;;;;;;39.28;23.40;;;;;;;16.29;65.80;100635.91;4970376;28;101415;-82
2022/10/30 01:48:45;;;;;;;37.38;21.77;;;;;;;16.25;66.19;100631.69;4954579;28;96703;-81
2022/10/30 01:51:32;;;;;;;33.58;20.10;;;;;;;16.20;66.20;100638.16;4956458;28;97389;-82
2022/10/30 01:54:16;;;;;;;31.77;20.27;;;;;;;16.20;66.56;100646.09;4957706;28;101685;-81
2022/10/30 01:57:03;;;;;;;38.50;21.38;;;;;;;16.20;65.99;100641.69;4954610;28;101265;-81
2022/10/30 01:59:32;;;;;;;34.40;21.88;;;;;;;16.18;65.95;100642.69;4956859;28;96857;-81
2022/10/30 02:01:57;;;;;;;31.15;20.40;;;;;;;16.18;65.82;100630.31;4958266;28;96865;-81
2022/10/30 02:04:23;;;;;;;33.63;20.85;;;;;;;16.17;66.11;100631.22;4941395;28;102141;-81
2022/10/30 02:06:50;;;;;;;32.45;20.67;;;;;;;16.14;66.24;100639.31;4955569;28;101066;-81
2022/10/30 02:09:17;;;;;;;39.00;20.75;;;;;;;16.13;66.27;100634.13;4925283;28;97079;-81
2022/10/30 02:11:47;;;;;;;32.05;19.90;;;;;;;16.06;66.30;100637.09;4942064;28;97206;-81
2022/10/30 02:14:16;;;;;;;35.72;20.25;;;;;;;16.10;66.20;100631.66;4924333;28;101804;-82
2022/10/30 02:16:45;;;;;;;33.15;20.05;;;;;;;16.05;65.99;100634.50;4941212;28;101591;-82
2022/10/30 02:19:10;;;;;;;34.15;20.25;;;;;;;16.03;66.05;100637.25;4954909;28;96758;-85
2022/10/30 02:21:36;;;;;;;39.28;20.55;;;;;;;15.99;66.20;100643.63;4936586;28;96749;-81
2022/10/30 02:24:02;;;;;;;38.03;22.85;;;;;;;15.99;66.36;100640.97;4957509;28;101468;-82
2022/10/30 02:26:27;;;;;;;35.08;20.98;;;;;;;15.98;66.06;100644.56;4955622;28;101755;-82
2022/10/30 02:28:53;;;;;;;42.70;23.13;;;;;;;15.96;66.07;100641.13;4925163;28;96946;-81
2022/10/30 02:31:18;;;;;;;37.95;22.92;;;;;;;15.94;66.26;100647.44;4957979;28;96875;-81
2022/10/30 02:33:47;;;;;;;37.17;22.48;;;;;;;15.93;66.16;100643.94;4940981;28;101323;-81
2022/10/30 02:36:16;;;;;;;38.75;22.40;;;;;;;15.90;66.30;100643.25;4940565;28;100881;-86
2022/10/30 02:38:42;;;;;;;45.05;24.02;;;;;;;15.92;66.18;100646.69;4927478;28;97087;-81
2022/10/30 02:41:09;;;;;;;46.58;23.83;;;;;;;15.88;65.96;100637.16;4940677;28;97286;-81
2022/10/30 02:43:35;;;;;;;40.97;23.33;;;;;;;15.95;65.90;100620.06;4956383;28;101347;-82
2022/10/30 02:46:01;;;;;;;32.72;17.98;;;;;;;15.83;66.65;100624.19;4940008;28;101398;-81
2022/10/30 02:48:29;;;;;;;33.00;16.23;;;;;;;15.63;67.24;100630.47;4957159;28;96871;-82
2022/10/30 02:50:59;;;;;;;26.20;16.33;;;;;;;15.62;67.25;100623.47;4938231;28;97417;-81
2022/10/30 02:53:24;;;;;;;31.00;15.32;;;;;;;15.68;66.98;100625.81;4957045;28;101795;-81
2022/10/30 02:55:50;;;;;;;24.52;15.20;;;;;;;15.66;67.01;100618.88;4940614;28;101335;-82
2022/10/30 02:58:16;;;;;;;22.77;14.90;;;;;;;15.47;67.47;100624.19;4940963;28;96557;-83
2022/10/30 03:00:41;;;;;;;28.60;15.52;;;;;;;15.55;67.59;100625.53;4941919;28;96945;-82
2022/10/30 03:03:07;;;;;;;28.08;15.32;;;;;;;15.45;67.86;100624.28;4939907;28;101881;-81
2022/10/30 03:05:33;;;;;;;27.88;15.52;;;;;;;15.49;67.24;100614.41;4944204;28;100973;-82
2022/10/30 03:07:59;;;;;;;29.40;13.52;;;;;;;15.54;67.13;100626.47;4957391;28;96752;-81
2022/10/30 03:10:24;;;;;;;28.88;15.40;;;;;;;15.52;67.23;100619.53;4940705;28;96884;-81
2022/10/30 03:12:51;;;;;;;26.38;15.32;;;;;;;15.40;67.45;100608.63;4924423;28;101870;-83
2022/10/30 03:15:16;;;;;;;22.67;13.35;;;;;;;15.53;67.33;100626.53;4940068;28;101639;-87
2022/10/30 03:17:42;;;;;;;21.27;14.57;;;;;;;15.39;67.17;100609.59;4956187;28;97011;-83
2022/10/30 03:20:10;;;;;;;24.77;13.70;;;;;;;15.42;67.55;100627.09;4941787;28;97135;-81
2022/10/30 03:22:36;;;;;;;25.83;15.65;;;;;;;15.42;67.41;100626.22;4923490;28;101813;-81
2022/10/30 03:25:02;;;;;;;25.17;13.30;;;;;;;15.49;67.06;100622.34;4940188;28;100946;-81
2022/10/30 03:27:28;;;;;;;20.25;11.95;;;;;;;15.43;67.36;100618.22;4920487;28;96800;-81
2022/10/30 03:29:53;;;;;;;19.05;12.90;;;;;;;15.22;67.63;100601.63;4931436;28;96890;-81
2022/10/30 03:32:19;;;;;;;24.10;14.38;;;;;;;15.32;67.57;100631.97;4956549;28;101143;-82
2022/10/30 03:34:52;;;;;;;23.15;15.73;;;;;;;15.23;67.27;100602.47;4926005;28;101376;-81
2022/10/30 03:37:18;;;;;;;24.60;14.10;;;;;;;15.40;67.22;100628.94;4941530;28;96769;-84
2022/10/30 03:39:43;;;;;;;24.65;14.63;;;;;;;15.45;67.04;100618.16;4945926;28;96941;-81
2022/10/30 03:42:09;;;;;;;19.42;12.35;;;;;;;15.46;67.23;100625.16;4947983;28;101558;-81
2022/10/30 03:44:34;;;;;;;19.15;11.18;;;;;;;15.37;67.25;100619.38;4923725;28;101623;-83
2022/10/30 03:47:01;;;;;;;24.77;14.10;;;;;;;15.34;67.11;100622.16;4940151;28;96769;-81
2022/10/30 03:49:39;;;;;;;22.55;15.63;;;;;;;15.34;67.27;100624.81;4955755;28;97455;-82
2022/10/30 03:52:08;;;;;;;21.83;13.93;;;;;;;15.35;67.25;100625.66;4952196;28;100704;-81
2022/10/30 03:54:34;;;;;;;22.55;13.13;;;;;;;15.32;67.04;100621.38;4951057;28;101943;-82
2022/10/30 03:57:00;;;;;;;19.83;12.75;;;;;;;15.33;67.18;100611.66;4943707;28;97455;-81
2022/10/30 03:59:35;;;;;;;21.85;13.25;;;;;;;15.36;67.07;100614.16;4941087;28;97286;-82
2022/10/30 04:02:21;;;;;;;23.05;13.02;;;;;;;15.39;66.97;100617.50;4957615;28;99414;-85
2022/10/30 04:04:46;;;;;;;19.77;12.82;;;;;;;15.29;67.05;100603.00;4923641;28;101876;-82
2022/10/30 04:07:12;;;;;;;25.08;12.75;;;;;;;15.31;66.92;100611.75;4963013;28;96719;-81
2022/10/30 04:09:38;;;;;;;21.58;13.15;;;;;;;15.25;66.90;100608.56;4931139;28;97138;-81
2022/10/30 04:12:03;;;;;;;18.55;12.30;;;;;;;15.30;67.04;100619.72;4974746;28;98143;-81
2022/10/30 04:14:29;;;;;;;22.33;13.45;;;;;;;15.20;67.14;100610.56;4935971;28;101642;-82
2022/10/30 04:16:55;;;;;;;27.33;13.38;;;;;;;15.27;66.93;100611.94;4952004;28;97489;-81
2022/10/30 04:19:20;;;;;;;19.13;12.07;;;;;;;15.21;66.81;100602.53;4941624;28;97242;-87
2022/10/30 04:21:46;;;;;;;23.98;13.05;;;;;;;15.23;66.88;100591.88;4934059;28;101409;-82
2022/10/30 04:24:15;;;;;;;20.83;12.48;;;;;;;15.22;66.77;100591.03;4939993;28;100951;-81
2022/10/30 04:26:43;;;;;;;20.55;11.95;;;;;;;15.20;66.64;100589.41;4952478;28;96836;-81
2022/10/30 04:29:09;;;;;;;21.38;12.40;;;;;;;15.22;66.49;100592.84;4937815;28;98354;-81
2022/10/30 04:31:35;;;;;;;18.27;10.98;;;;;;;15.21;66.54;100594.59;4949729;28;101686;-83
2022/10/30 04:34:00;;;;;;;21.50;12.05;;;;;;;15.17;66.65;100598.34;4939674;28;101719;-82
2022/10/30 04:36:31;;;;;;;20.10;10.98;;;;;;;15.13;66.49;100594.13;4936477;28;96710;-82
2022/10/30 04:38:58;;;;;;;20.45;12.45;;;;;;;15.08;66.55;100594.34;4952855;28;96919;-81
2022/10/30 04:41:25;;;;;;;21.02;11.07;;;;;;;14.94;66.81;100563.28;4934757;28;101419;-82
2022/10/30 04:43:59;;;;;;;21.48;11.02;;;;;;;15.02;67.10;100578.78;4932386;28;101527;-81
2022/10/30 04:46:28;;;;;;;21.45;10.85;;;;;;;15.05;66.90;100591.00;4945400;28;97194;-82
2022/10/30 04:48:58;;;;;;;19.90;11.88;;;;;;;15.00;67.04;100588.56;4932328;28;96949;-80
2022/10/30 04:51:23;;;;;;;20.40;12.05;;;;;;;15.02;66.70;100588.50;4969047;28;101761;-85
2022/10/30 04:53:50;;;;;;;20.20;11.30;;;;;;;15.03;66.82;100592.84;4931358;28;101265;-81
2022/10/30 04:56:15;;;;;;;17.95;11.82;;;;;;;15.01;66.60;100595.59;4958840;28;97024;-81
2022/10/30 04:58:41;;;;;;;17.42;11.48;;;;;;;14.96;66.94;100597.59;4959650;28;96911;-82
2022/10/30 05:01:07;;;;;;;15.07;10.25;;;;;;;14.93;67.02;100595.94;4925936;28;101558;-81
2022/10/30 05:03:34;;;;;;;24.88;12.10;;;;;;;14.95;66.63;100598.50;4942086;28;101503;-81
2022/10/30 05:06:06;;;;;;;19.20;11.30;;;;;;;14.92;66.84;100596.00;4948113;28;98091;-81
2022/10/30 05:08:32;;;;;;;22.55;10.60;;;;;;;14.79;66.83;100576.38;4913216;28;96874;-82
2022/10/30 05:11:03;;;;;;;16.85;11.15;;;;;;;14.91;66.34;100589.00;4942766;28;101784;-83
2022/10/30 05:13:29;;;;;;;15.40;10.65;;;;;;;14.89;66.77;100588.22;4958468;28;101419;-81
2022/10/30 05:15:55;;;;;;;17.83;10.52;;;;;;;14.89;66.50;100589.09;4959016;28;97106;-81
2022/10/30 05:18:21;;;;;;;18.65;10.95;;;;;;;14.83;66.61;100597.28;4942918;28;96893;-81
2022/10/30 05:20:47;;;;;;;19.23;10.18;;;;;;;14.78;67.17;100588.75;4940812;28;101753;-82
2022/10/30 05:23:13;;;;;;;20.13;10.05;;;;;;;14.79;67.02;100576.38;4926534;28;100855;-81
2022/10/30 05:25:38;;;;;;;18.00;10.73;;;;;;;14.83;66.95;100592.00;4942048;28;96997;-80
2022/10/30 05:28:06;;;;;;;13.32;9.35;;;;;;;14.68;66.76;100571.59;4939851;28;97067;-81
2022/10/30 05:30:39;;;;;;;19.05;9.52;;;;;;;14.77;66.94;100589.66;4939255;28;101024;-81
2022/10/30 05:33:16;;;;;;;19.30;10.40;;;;;;;14.67;66.95;100578.69;4923978;28;100891;-80
2022/10/30 05:35:42;;;;;;;20.80;10.48;;;;;;;14.75;67.16;100598.59;4945365;28;97113;-82
2022/10/30 05:38:07;;;;;;;18.67;10.48;;;;;;;14.73;67.33;100600.47;4958183;28;97117;-81
2022/10/30 05:40:34;;;;;;;14.07;9.60;;;;;;;14.69;67.16;100594.47;4954990;28;101360;-84
2022/10/30 05:43:00;;;;;;;17.40;9.57;;;;;;;14.71;67.08;100595.25;4928067;28;101641;-81
2022/10/30 05:45:25;;;;;;;17.15;9.95;;;;;;;14.73;66.50;100603.97;4942470;28;96715;-81
2022/10/30 05:47:57;;;;;;;19.20;10.32;;;;;;;14.73;67.01;100603.97;4959022;28;96807;-81
2022/10/30 05:50:23;;;;;;;15.65;9.45;;;;;;;14.71;67.02;100603.16;4941945;28;101372;-81
2022/10/30 05:53:08;;;;;;;14.48;8.95;;;;;;;14.73;67.07;100601.31;4944532;28;100599;-80
2022/10/30 05:55:35;;;;;;;24.15;10.07;;;;;;;14.70;67.21;100612.88;4959237;28;96758;-80
2022/10/30 05:58:10;;;;;;;23.10;10.73;;;;;;;14.50;67.63;100578.56;4959339;28;96877;-80
2022/10/30 06:00:40;;;;;;;17.30;9.43;;;;;;;14.58;67.21;100600.25;4955000;28;101162;-81
2022/10/30 06:03:10;;;;;;;16.58;9.27;;;;;;;14.50;67.35;100590.00;4942117;28;101594;-82
2022/10/30 06:05:38;;;;;;;;;;;;;;;14.65;67.21;100606.94;4965780;28;97285;-83
2022/10/30 06:08:06;;;;;;;18.92;9.77;;;;;;;14.68;67.28;100603.31;4958110;28;96850;-87
2022/10/30 06:10:32;;;;;;;18.10;9.40;;;;;;;14.57;67.20;100580.03;4940550;28;100571;-83
2022/10/30 06:13:18;;;;;;;16.23;9.57;;;;;;;14.69;67.04;100589.19;4943001;28;101916;-81
2022/10/30 06:15:57;;;;;;;16.58;9.15;;;;;;;14.79;66.90;100611.59;4956788;28;97178;-82
2022/10/30 06:18:28;;;;;;;15.48;9.73;;;;;;;14.80;67.31;100615.94;4922475;28;97292;-87
2022/10/30 06:21:04;;;;;;;20.48;9.95;;;;;;;14.79;67.08;100608.09;4938267;28;101838;-82
2022/10/30 06:23:49;;;;;;;16.08;9.65;;;;;;;14.82;67.01;100615.88;4949251;28;101517;-83
2022/10/30 06:26:33;;;;;;;19.60;10.38;;;;;;;14.81;67.52;100611.53;4953333;28;97058;-83
2022/10/30 06:29:05;;;;;;;20.25;9.13;;;;;;;14.80;67.28;100612.44;4955236;28;97459;-82
2022/10/30 06:31:30;;;;;;;17.73;9.45;;;;;;;14.88;67.45;100631.44;4954638;28;101546;-85
2022/10/30 06:33:58;;;;;;;16.67;9.82;;;;;;;14.88;67.07;100620.88;4930923;28;99204;-80
2022/10/30 06:36:24;;;;;;;20.60;10.10;;;;;;;14.93;67.08;100625.03;4945598;28;96786;-81
2022/10/30 06:38:50;;;;;;;19.10;10.57;;;;;;;15.00;66.92;100630.88;4953153;28;97719;-81
2022/10/30 06:41:17;;;;;;;21.95;10.48;;;;;;;15.04;66.72;100626.28;4942089;28;101346;-81
2022/10/30 06:44:05;;;;;;;18.35;9.60;;;;;;;15.01;67.03;100629.06;4954983;28;98984;-81
2022/10/30 06:46:34;;;;;;;16.70;8.98;;;;;;;15.01;67.23;100637.00;4954184;28;96944;-82
2022/10/30 06:49:01;;;;;;;17.58;9.10;;;;;;;15.09;67.25;100640.16;4934761;28;97173;-84
2022/10/30 06:51:27;;;;;;;22.20;10.00;;;;;;;15.14;67.29;100639.00;4953757;28;100806;-81
2022/10/30 06:53:53;;;;;;;22.58;9.75;;;;;;;15.18;67.16;100637.06;4944797;28;100423;-82
2022/10/30 06:56:37;;;;;;;20.23;9.85;;;;;;;15.29;66.97;100636.53;4957842;28;96843;-81
2022/10/30 06:59:25;;;;;;;19.27;10.27;;;;;;;15.38;67.07;100644.88;4944535;28;96990;-81
2022/10/30 07:01:55;;;;;;;17.35;11.30;;;;;;;15.51;66.83;100634.56;4939181;28;101670;-83
2022/10/30 07:04:24;;;;;;;15.82;9.63;;;;;;;15.81;66.25;100640.13;4941393;28;98036;-81
2022/10/30 07:06:49;;;;;;;16.15;9.75;;;;;;;16.07;65.99;100638.81;4929059;28;97072;-82
2022/10/30 07:09:17;;;;;;;17.98;9.30;;;;;;;16.37;65.63;100635.47;4935115;28;97149;-81
2022/10/30 07:11:44;;;;;;;18.50;10.18;;;;;;;16.56;65.07;100643.31;4918090;28;101593;-81
2022/10/30 07:14:28;;;;;;;19.48;9.00;;;;;;;16.80;63.93;100629.69;4973631;28;97068;-81
2022/10/30 07:17:12;;;;;;;17.60;9.50;;;;;;;17.11;63.58;100652.72;4936738;28;96880;-81
2022/10/30 07:19:41;;;;;;;26.88;10.30;;;;;;;17.33;63.43;100655.84;4948752;28;96977;-84
2022/10/30 07:22:06;;;;;;;20.13;9.55;;;;;;;17.55;62.51;100642.22;4934417;28;100898;-81
2022/10/30 07:24:35;;;;;;;18.38;10.38;;;;;;;17.76;61.66;100657.84;4950609;28;100856;-83
2022/10/30 07:27:14;;;;;;;16.70;8.98;;;;;;;17.82;61.75;100647.75;4923661;28;97344;-81
2022/10/30 07:29:55;;;;;;;17.15;9.48;;;;;;;17.91;61.83;100656.13;4943191;28;96969;-81
2022/10/30 07:32:33;;;;;;;15.93;9.73;;;;;;;17.72;61.63;100621.81;4934407;28;101737;-83
2022/10/30 07:35:13;;;;;;;14.88;9.23;;;;;;;17.78;61.14;100632.09;4947256;28;101463;-81
2022/10/30 07:38:11;;;;;;;14.50;8.43;;;;;;;17.98;61.23;100645.03;4952669;28;97240;-80
2022/10/30 07:40:53;;;;;;;16.92;9.73;;;;;;;18.34;60.54;100662.34;4951452;28;97599;-81
2022/10/30 07:43:38;;;;;;;18.60;8.98;;;;;;;18.54;60.00;100659.31;4941408;28;100281;-81
2022/10/30 07:46:36;;;;;;;14.95;8.82;;;;;;;18.69;60.17;100659.31;4921525;28;101528;-81
2022/10/30 07:49:20;;;;;;;16.10;9.15;;;;;;;18.90;59.48;100642.03;4955503;28;96849;-82
2022/10/30 07:51:52;;;;;;;17.83;8.90;;;;;;;19.08;59.18;100637.38;4913501;28;97618;-81
2022/10/30 07:54:18;;;;;;;14.07;8.52;;;;;;;19.21;58.99;100638.25;4948208;28;101352;-82
2022/10/30 07:56:44;;;;;;;13.60;8.10;;;;;;;19.47;58.26;100643.69;4954691;28;101567;-84
2022/10/30 07:59:38;;;;;;;17.85;8.93;;;;;;;19.63;57.86;100630.19;4906303;28;96840;-84
2022/10/30 08:02:38;;;;;;;17.38;7.95;;;;;;;19.86;57.51;100647.34;4942344;28;98427;-82
2022/10/30 08:05:14;;;;;;;17.27;8.68;;;;;;;19.99;57.57;100629.56;4958067;28;101591;-84
2022/10/30 08:07:58;;;;;;;13.45;8.68;;;;;;;20.37;56.79;100634.06;4940125;28;101186;-81
2022/10/30 08:10:24;;;;;;;12.27;8.07;;;;;;;20.61;56.16;100643.97;4953646;28;97430;-84
2022/10/30 08:12:50;;;;;;;19.95;9.25;;;;;;;20.92;55.72;100645.31;4941863;28;97068;-78
2022/10/30 08:15:16;;;;;;;18.65;8.27;;;;;;;20.81;55.19;100643.41;4936314;28;101431;-82
2022/10/30 08:17:43;;;;;;;17.42;8.27;;;;;;;20.57;55.33;100651.34;4935985;28;101239;-81
2022/10/30 08:20:10;;;;;;;15.02;8.52;;;;;;;20.38;55.77;100634.91;4934297;28;97030;-79
2022/10/30 08:22:50;;;;;;;14.13;9.07;;;;;;;20.15;55.94;100629.34;4951854;28;97198;-87
2022/10/30 08:25:25;;;;;;;16.00;8.88;;;;;;;20.23;56.01;100643.00;4953679;28;100900;-79
2022/10/30 08:28:02;;;;;;;12.80;7.95;;;;;;;19.90;56.58;100628.38;4919652;28;101301;-79
2022/10/30 08:30:33;;;;;;;16.20;8.30;;;;;;;19.79;56.63;100608.78;4941120;28;97250;-81
2022/10/30 08:33:01;;;;;;;13.45;8.23;;;;;;;19.65;57.05;100615.03;4927448;28;97516;-79
2022/10/30 08:35:47;;;;;;;15.15;8.75;;;;;;;19.58;57.85;100635.00;4955201;28;97184;-79
2022/10/30 08:38:13;;;;;;;16.77;8.48;;;;;;;20.03;57.25;100633.72;4938624;28;101376;-80
2022/10/30 08:40:40;;;;;;;14.93;7.97;;;;;;;20.20;56.79;100626.38;4954269;28;96757;-81
2022/10/30 08:43:06;;;;;;;17.63;9.57;;;;;;;20.05;56.57;100596.31;4944627;28;97039;-80
2022/10/30 08:45:32;;;;;;;17.83;9.82;;;;;;;20.48;55.63;100610.16;4930176;28;101685;-79
2022/10/30 08:48:09;;;;;;;19.45;9.25;;;;;;;20.77;55.30;100612.59;4934977;28;101540;-79
2022/10/30 08:50:37;;;;;;;15.65;10.18;;;;;;;21.25;54.80;100610.81;4952992;28;96679;-78
2022/10/30 08:53:06;;;;;;;16.38;9.45;;;;;;;21.71;53.48;100614.56;4920105;28;96830;-79
2022/10/30 08:55:33;;;;;;;16.02;8.38;;;;;;;21.71;53.24;100609.22;4939378;28;101660;-76
2022/10/30 08:58:01;;;;;;;13.32;8.25;;;;;;;22.25;52.42;100610.44;4937804;28;102657;-77
2022/10/30 09:00:28;;;;;;;14.80;8.35;;;;;;;22.68;50.94;100618.59;4951899;28;97021;-78
2022/10/30 09:03:23;;;;;;;16.55;8.65;;;;;;;23.00;50.78;100612.50;4928774;28;96913;-78
2022/10/30 09:06:10;;;;;;;12.32;7.68;;;;;;;23.39;50.33;100602.16;4966534;28;101624;-78
2022/10/30 09:08:56;;;;;;;12.18;7.07;;;;;;;23.80;49.70;100608.56;4943273;28;96938;-78
2022/10/30 09:11:28;;;;;;;17.55;6.55;;;;;;;24.16;49.18;100604.56;4947205;28;96908;-78
2022/10/30 09:13:56;;;;;;;15.25;7.70;;;;;;;24.50;48.26;100610.53;4959394;28;96959;-79
2022/10/30 09:16:21;;;;;;;12.15;6.68;;;;;;;24.72;47.47;100603.25;4962106;28;101270;-80
2022/10/30 09:18:47;;;;;;;13.68;6.13;;;;;;;25.08;47.30;100605.34;4932085;28;101168;-79
2022/10/30 09:21:12;;;;;;;11.65;5.70;;;;;;;25.26;46.83;100594.78;4947887;28;96962;-79
2022/10/30 09:23:49;;;;;;;11.85;6.30;;;;;;;25.61;46.10;100611.31;4952500;28;96915;-79
2022/10/30 09:26:46;;;;;;;15.85;6.13;;;;;;;25.58;45.85;100590.13;4957792;28;97420;-80
2022/10/30 09:29:17;;;;;;;12.73;6.70;;;;;;;25.78;45.48;100612.44;4953580;28;101501;-79
2022/10/30 09:32:17;;;;;;;12.73;6.53;;;;;;;25.71;45.72;100607.66;4947110;28;97004;-79
2022/10/30 09:35:03;;;;;;;14.00;5.70;;;;;;;25.77;45.42;100606.19;4946643;28;96759;-80
2022/10/30 09:37:37;;;;;;;;;;;;;;;25.82;44.87;100609.34;4942428;28;102271;-80
2022/10/30 09:40:07;;;;;;;11.82;6.43;;;;;;;25.89;45.00;100607.78;4956122;28;101071;-79
2022/10/30 09:42:42;;;;;;;10.45;5.63;;;;;;;25.77;44.44;100610.72;4953805;28;97021;-80
2022/10/30 09:45:16;;;;;;;11.40;6.47;;;;;;;25.59;44.98;100607.94;4938102;28;97108;-80
2022/10/30 09:48:00;;;;;;;12.88;6.57;;;;;;;24.80;46.46;100595.38;4956705;28;102334;-84
2022/10/30 09:50:31;;;;;;;11.40;6.15;;;;;;;24.70;47.24;100589.16;4960661;28;101778;-81
2022/10/30 09:53:24;;;;;;;12.65;6.28;;;;;;;24.53;46.58;100587.97;4957265;28;96829;-81
2022/10/30 09:56:00;;;;;;;12.95;5.53;;;;;;;24.63;46.70;100578.09;4936426;28;96866;-80
2022/10/30 09:59:10;;;;;;;12.93;6.10;;;;;;;24.58;47.33;100574.97;4941016;28;98274;-84
2022/10/30 10:01:48;;;;;;;8.02;5.63;;;;;;;24.19;48.03;100574.78;4940302;28;101381;-80
2022/10/30 10:04:26;;;;;;;9.23;5.18;;;;;;;24.34;47.98;100568.06;4938072;28;97918;-81
2022/10/30 10:07:27;;;;;;;11.30;5.43;;;;;;;24.59;47.66;100548.00;4951742;28;99024;-81
2022/10/30 10:10:24;;;;;;;10.18;6.57;;;;;;;24.69;47.27;100563.28;4956098;28;100681;-84
2022/10/30 10:12:54;;;;;;;10.77;6.55;;;;;;;24.49;47.87;100555.16;4936126;28;101666;-83
2022/10/30 10:15:41;;;;;;;14.90;5.18;;;;;;;24.08;47.66;100556.09;4955049;28;97107;-86
2022/10/30 10:18:17;;;;;;;15.70;5.65;;;;;;;23.87;48.70;100565.00;4934585;28;96781;-82
2022/10/30 10:20:50;;;;;;;12.73;5.60;;;;;;;23.85;49.01;100547.34;4941248;28;98158;-80
2022/10/30 10:23:17;;;;;;;14.75;6.10;;;;;;;23.65;49.14;100557.06;4937552;28;101402;-81
2022/10/30 10:25:51;;;;;;;11.48;5.97;;;;;;;23.57;50.33;100552.38;4938730;28;96919;-84
2022/10/30 10:28:26;;;;;;;11.85;5.95;;;;;;;23.58;49.89;100561.25;4942050;28;97273;-80
2022/10/30 10:30:51;;;;;;;10.73;5.47;;;;;;;23.37;50.84;100558.56;4939813;28;101902;-82
2022/10/30 10:33:43;;;;;;;13.88;5.10;;;;;;;23.34;50.29;100551.66;4945046;28;101172;-82
2022/10/30 10:36:17;;;;;;;12.95;5.40;;;;;;;23.04;51.41;100555.06;4955975;28;97048;-82
2022/10/30 10:38:52;;;;;;;11.80;5.45;;;;;;;23.01;52.14;100553.47;4954844;28;97212;-84
2022/10/30 10:41:21;;;;;;;12.65;4.88;;;;;;;23.08;51.54;100555.66;4942021;28;101557;-82
2022/10/30 10:43:58;;;;;;;8.95;4.97;;;;;;;23.01;52.28;100550.81;4957842;28;102061;-81
2022/10/30 10:46:47;;;;;;;15.57;5.15;;;;;;;23.02;52.20;100552.50;4954234;28;96886;-81
2022/10/30 10:49:58;;;;;;;12.68;5.03;;;;;;;22.98;51.08;100559.09;4941190;28;96802;-78
2022/10/30 10:52:40;;;;;;;13.13;6.00;;;;;;;22.69;51.77;100544.50;4927142;28;100483;-81
2022/10/30 10:55:13;;;;;;;11.05;4.93;;;;;;;22.38;52.28;100533.63;4970646;28;97549;-78
2022/10/30 10:57:40;;;;;;;9.85;4.68;;;;;;;22.20;53.11;100537.78;4956673;28;96924;-81
2022/10/30 11:00:22;;;;;;;14.32;5.05;;;;;;;21.97;53.74;100527.03;4924225;28;96995;-81
2022/10/30 11:02:53;;;;;;;;;;;;;;;21.90;54.38;100537.38;4986166;28;97520;-79
2022/10/30 11:05:32;;;;;;;18.48;6.07;;;;;;;21.93;54.67;100533.56;4940506;28;101278;-81
2022/10/30 11:08:05;;;;;;;13.90;5.68;;;;;;;21.93;54.16;100534.47;4952158;28;96733;-81
2022/10/30 11:10:31;;;;;;;15.23;6.40;;;;;;;21.91;54.90;100535.53;4977388;28;96783;-81
2022/10/30 11:12:56;;;;;;;10.40;5.75;;;;;;;21.83;54.77;100527.28;4953575;28;101536;-81
2022/10/30 11:15:28;;;;;;;10.55;6.30;;;;;;;21.87;55.80;100542.91;4955312;28;101411;-83
2022/10/30 11:18:01;;;;;;;12.50;5.55;;;;;;;21.90;55.49;100529.34;4943314;28;97279;-83
2022/10/30 11:20:30;;;;;;;15.35;5.88;;;;;;;22.05;55.86;100535.31;4948595;28;96989;-82
2022/10/30 11:22:55;;;;;;;17.65;6.47;;;;;;;22.20;55.11;100530.59;4955711;28;101721;-81
2022/10/30 11:25:25;;;;;;;17.08;6.13;;;;;;;22.24;54.37;100525.84;4965298;28;97851;-78
2022/10/30 11:27:59;;;;;;;15.35;6.35;;;;;;;22.10;55.07;100517.06;4954125;28;96893;-82
2022/10/30 11:30:27;;;;;;;8.75;5.43;;;;;;;22.04;55.07;100533.59;4966931;28;97011;-83